createdAt,value
2018-03-14T00:00:08.264Z,0
2018-03-14T00:00:48.767Z,0
2018-03-14T00:01:29.260Z,0
2018-03-14T00:02:09.770Z,0
2018-03-14T00:02:50.282Z,0
2018-03-14T00:03:30.780Z,0
2018-03-14T00:04:12.170Z,0
2018-03-14T00:04:51.815Z,0
2018-03-14T00:05:32.331Z,0
2018-03-14T00:06:12.862Z,0
2018-03-14T00:06:53.333Z,0
2018-03-14T00:07:33.844Z,0
2018-03-14T00:08:14.345Z,0
2018-03-14T00:08:54.864Z,0
2018-03-14T00:09:35.388Z,0
2018-03-14T00:10:15.893Z,0
2018-03-14T00:10:56.414Z,0
2018-03-14T00:11:36.924Z,0
2018-03-14T00:12:17.455Z,0
2018-03-14T00:12:57.992Z,0
2018-03-14T00:13:38.505Z,0
2018-03-14T00:14:18.990Z,0
2018-03-14T00:14:59.504Z,0
2018-03-14T00:15:39.991Z,0
2018-03-14T00:16:20.508Z,0
2018-03-14T00:17:01.030Z,0
2018-03-14T00:17:41.537Z,0
2018-03-14T00:18:22.039Z,0
2018-03-14T00:19:02.546Z,0
2018-03-14T00:19:43.063Z,0
2018-03-14T00:20:23.602Z,0
2018-03-14T00:21:04.112Z,0
2018-03-14T00:21:44.627Z,0
2018-03-14T00:22:25.133Z,0
2018-03-14T00:23:05.634Z,0
2018-03-14T00:23:46.123Z,0
2018-03-14T00:24:26.624Z,0
2018-03-14T00:25:07.125Z,0
2018-03-14T00:25:47.623Z,0
2018-03-14T00:26:28.132Z,0
2018-03-14T00:27:08.665Z,0
2018-03-14T00:27:49.158Z,0
2018-03-14T00:28:29.676Z,0
2018-03-14T00:29:10.194Z,0
2018-03-14T00:29:50.706Z,0
2018-03-14T00:30:31.242Z,0
2018-03-14T00:31:11.758Z,0
2018-03-14T00:31:52.273Z,0
2018-03-14T00:32:32.766Z,0
2018-03-14T00:33:13.277Z,0
2018-03-14T00:33:53.790Z,0
2018-03-14T00:34:34.325Z,0
2018-03-14T00:35:14.837Z,0
2018-03-14T00:35:55.356Z,0
2018-03-14T00:36:35.871Z,0
2018-03-14T00:37:16.375Z,0
2018-03-14T00:37:56.862Z,0
2018-03-14T00:38:37.373Z,0
2018-03-14T00:39:17.886Z,0
2018-03-14T00:39:58.407Z,0
2018-03-14T00:40:38.925Z,0
2018-03-14T00:41:19.447Z,0
2018-03-14T00:41:59.963Z,0
2018-03-14T00:42:40.465Z,0
2018-03-14T00:43:20.981Z,0
2018-03-14T00:44:01.499Z,0
2018-03-14T00:44:42.019Z,0
2018-03-14T00:45:22.529Z,0
2018-03-14T00:46:03.053Z,0
2018-03-14T00:46:43.561Z,0
2018-03-14T00:47:24.079Z,0
2018-03-14T00:48:04.599Z,0
2018-03-14T00:48:45.110Z,0
2018-03-14T00:49:25.620Z,0
2018-03-14T00:50:06.127Z,0
2018-03-14T00:50:46.647Z,0
2018-03-14T00:51:27.162Z,0
2018-03-14T00:52:07.672Z,0
2018-03-14T00:52:48.185Z,0
2018-03-14T00:53:28.712Z,0
2018-03-14T00:54:09.218Z,0
2018-03-14T00:54:49.733Z,0
2018-03-14T00:55:30.245Z,0
2018-03-14T00:56:10.778Z,0
2018-03-14T00:56:51.299Z,0
2018-03-14T00:57:31.805Z,0
2018-03-14T00:58:12.317Z,0
2018-03-14T00:58:52.820Z,0
2018-03-14T00:59:33.325Z,0
2018-03-14T01:00:13.846Z,0
2018-03-14T01:00:54.364Z,0
2018-03-14T01:01:34.879Z,0
2018-03-14T01:02:15.397Z,0
2018-03-14T01:02:55.908Z,0
2018-03-14T01:03:36.414Z,0
2018-03-14T01:04:16.938Z,0
2018-03-14T01:04:57.467Z,0
2018-03-14T01:05:38.012Z,0
2018-03-14T01:06:18.517Z,0
2018-03-14T01:06:59.038Z,0
2018-03-14T01:07:39.548Z,0
2018-03-14T01:08:20.038Z,0
2018-03-14T01:09:00.576Z,0
2018-03-14T01:09:41.050Z,0
2018-03-14T01:10:21.580Z,0
2018-03-14T01:11:02.085Z,0
2018-03-14T01:11:42.592Z,0
2018-03-14T01:12:23.096Z,0
2018-03-14T01:13:03.606Z,0
2018-03-14T01:13:44.125Z,0
2018-03-14T01:14:24.631Z,0
2018-03-14T01:15:05.106Z,0
2018-03-14T01:15:45.615Z,0
2018-03-14T01:16:26.142Z,0
2018-03-14T01:17:06.668Z,0
2018-03-14T01:17:47.177Z,0
2018-03-14T01:18:27.681Z,0
2018-03-14T01:19:08.196Z,0
2018-03-14T01:19:48.676Z,0
2018-03-14T01:20:29.192Z,0
2018-03-14T01:21:09.701Z,0
2018-03-14T01:21:50.185Z,0
2018-03-14T01:22:30.764Z,0
2018-03-14T01:23:11.203Z,0
2018-03-14T01:23:51.735Z,0
2018-03-14T01:24:32.212Z,0
2018-03-14T01:25:12.711Z,0
2018-03-14T01:25:53.219Z,0
2018-03-14T01:26:33.722Z,0
2018-03-14T01:27:14.216Z,0
2018-03-14T01:27:54.722Z,0
2018-03-14T01:28:35.241Z,0
2018-03-14T01:29:15.724Z,0
2018-03-14T01:29:56.221Z,0
2018-03-14T01:30:36.705Z,0
2018-03-14T01:31:17.198Z,0
2018-03-14T01:31:57.694Z,0
2018-03-14T01:32:38.197Z,0
2018-03-14T01:33:18.684Z,0
2018-03-14T01:33:59.186Z,0
2018-03-14T01:34:39.670Z,0
2018-03-14T01:35:20.175Z,0
2018-03-14T01:36:00.667Z,0
2018-03-14T01:36:41.194Z,0
2018-03-14T01:37:21.657Z,0
2018-03-14T01:38:02.157Z,0
2018-03-14T01:38:42.649Z,0
2018-03-14T01:39:23.154Z,0
2018-03-14T01:40:03.660Z,0
2018-03-14T01:40:44.167Z,0
2018-03-14T01:41:24.676Z,0
2018-03-14T01:42:05.187Z,0
2018-03-14T01:42:45.707Z,0
2018-03-14T01:43:26.192Z,0
2018-03-14T01:44:06.701Z,0
2018-03-14T01:44:47.210Z,0
2018-03-14T01:45:27.756Z,0
2018-03-14T01:46:08.289Z,0
2018-03-14T01:46:48.787Z,0
2018-03-14T01:47:29.313Z,0
2018-03-14T01:48:09.827Z,0
2018-03-14T01:48:50.342Z,0
2018-03-14T01:49:30.866Z,0
2018-03-14T01:50:11.410Z,0
2018-03-14T01:50:51.883Z,0
2018-03-14T01:51:32.398Z,0
2018-03-14T01:52:12.914Z,0
2018-03-14T01:52:53.421Z,0
2018-03-14T01:53:33.936Z,0
2018-03-14T01:54:14.450Z,0
2018-03-14T01:54:54.960Z,0
2018-03-14T01:55:35.494Z,0
2018-03-14T01:56:16.013Z,0
2018-03-14T01:56:56.535Z,0
2018-03-14T01:57:37.040Z,0
2018-03-14T01:58:17.560Z,0
2018-03-14T01:58:58.072Z,0
2018-03-14T01:59:38.585Z,0
2018-03-14T02:00:19.098Z,0
2018-03-14T02:00:59.624Z,0
2018-03-14T02:01:40.137Z,0
2018-03-14T02:02:20.659Z,0
2018-03-14T02:03:01.178Z,0
2018-03-14T02:03:41.688Z,0
2018-03-14T02:04:22.201Z,0
2018-03-14T02:05:02.722Z,0
2018-03-14T02:05:43.231Z,0
2018-03-14T02:06:23.753Z,0
2018-03-14T02:07:04.278Z,0
2018-03-14T02:07:44.796Z,0
2018-03-14T02:08:25.307Z,0
2018-03-14T02:09:05.826Z,0
2018-03-14T02:09:46.344Z,0
2018-03-14T02:10:26.851Z,0
2018-03-14T02:11:07.366Z,0
2018-03-14T02:11:47.884Z,0
2018-03-14T02:12:28.398Z,0
2018-03-14T02:13:08.898Z,0
2018-03-14T02:13:49.418Z,0
2018-03-14T02:14:29.941Z,0
2018-03-14T02:15:10.473Z,0
2018-03-14T02:15:50.986Z,0
2018-03-14T02:16:31.503Z,0
2018-03-14T02:17:12.016Z,0
2018-03-14T02:17:52.544Z,0
2018-03-14T02:18:33.058Z,0
2018-03-14T02:19:13.573Z,0
2018-03-14T02:19:54.077Z,0
2018-03-14T02:20:34.598Z,0
2018-03-14T02:21:15.116Z,0
2018-03-14T02:21:55.627Z,0
2018-03-14T02:22:36.177Z,0
2018-03-14T02:23:16.701Z,0
2018-03-14T02:23:57.226Z,0
2018-03-14T02:24:37.731Z,0
2018-03-14T02:25:18.256Z,0
2018-03-14T02:25:58.767Z,0
2018-03-14T02:26:39.279Z,0
2018-03-14T02:27:19.802Z,0
2018-03-14T02:28:00.323Z,0
2018-03-14T02:28:40.837Z,0
2018-03-14T02:29:21.359Z,0
2018-03-14T02:30:01.874Z,0
2018-03-14T02:30:42.405Z,0
2018-03-14T02:31:22.909Z,0
2018-03-14T02:32:03.423Z,0
2018-03-14T02:32:43.945Z,0
2018-03-14T02:33:24.459Z,0
2018-03-14T02:34:04.971Z,0
2018-03-14T02:34:45.501Z,0
2018-03-14T02:35:26.007Z,0
2018-03-14T02:36:06.531Z,0
2018-03-14T02:36:47.038Z,0
2018-03-14T02:37:27.568Z,0
2018-03-14T02:38:08.094Z,0
2018-03-14T02:38:48.610Z,0
2018-03-14T02:39:29.123Z,0
2018-03-14T02:40:09.636Z,0
2018-03-14T02:40:50.147Z,0
2018-03-14T02:41:30.666Z,0
2018-03-14T02:42:11.183Z,0
2018-03-14T02:42:51.698Z,0
2018-03-14T02:43:32.212Z,0
2018-03-14T02:44:12.711Z,0
2018-03-14T02:44:53.222Z,0
2018-03-14T02:45:33.745Z,0
2018-03-14T02:46:14.263Z,0
2018-03-14T02:46:54.788Z,0
2018-03-14T02:47:35.300Z,0
2018-03-14T02:48:15.841Z,0
2018-03-14T02:48:56.348Z,0
2018-03-14T02:49:36.866Z,0
2018-03-14T02:50:17.386Z,0
2018-03-14T02:50:57.898Z,0
2018-03-14T02:51:38.410Z,0
2018-03-14T02:52:18.934Z,0
2018-03-14T02:52:59.453Z,0
2018-03-14T02:53:39.971Z,0
2018-03-14T02:54:20.497Z,0
2018-03-14T02:55:01.013Z,0
2018-03-14T02:55:41.515Z,0
2018-03-14T02:56:22.026Z,0
2018-03-14T02:57:02.551Z,0
2018-03-14T02:57:43.063Z,0
2018-03-14T02:58:23.590Z,0
2018-03-14T02:59:04.101Z,0
2018-03-14T02:59:44.609Z,0
2018-03-14T03:00:25.125Z,0
2018-03-14T03:01:05.640Z,0
2018-03-14T03:01:46.149Z,0
2018-03-14T03:02:26.667Z,0
2018-03-14T03:03:07.202Z,0
2018-03-14T03:03:47.714Z,0
2018-03-14T03:04:28.229Z,0
2018-03-14T03:05:08.761Z,0
2018-03-14T03:05:49.273Z,0
2018-03-14T03:06:29.781Z,0
2018-03-14T03:07:10.342Z,0
2018-03-14T03:07:50.826Z,0
2018-03-14T03:08:31.354Z,0
2018-03-14T03:09:11.860Z,0
2018-03-14T03:09:52.375Z,0
2018-03-14T03:10:32.885Z,0
2018-03-14T03:11:13.409Z,0
2018-03-14T03:11:53.938Z,0
2018-03-14T03:12:34.442Z,0
2018-03-14T03:13:14.961Z,0
2018-03-14T03:13:55.479Z,0
2018-03-14T03:14:36.007Z,0
2018-03-14T03:15:16.516Z,0
2018-03-14T03:15:57.024Z,0
2018-03-14T03:16:37.544Z,0
2018-03-14T03:17:18.067Z,0
2018-03-14T03:17:58.582Z,0
2018-03-14T03:18:39.105Z,0
2018-03-14T03:19:19.625Z,0
2018-03-14T03:20:00.127Z,0
2018-03-14T03:20:40.642Z,0
2018-03-14T03:21:21.169Z,0
2018-03-14T03:22:01.692Z,0
2018-03-14T03:22:42.218Z,0
2018-03-14T03:23:22.713Z,0
2018-03-14T03:24:03.221Z,0
2018-03-14T03:24:43.781Z,0
2018-03-14T03:25:24.253Z,0
2018-03-14T03:26:04.755Z,0
2018-03-14T03:26:45.266Z,0
2018-03-14T03:27:25.752Z,0
2018-03-14T03:28:06.273Z,0
2018-03-14T03:28:46.782Z,0
2018-03-14T03:29:27.286Z,0
2018-03-14T03:30:07.863Z,0
2018-03-14T03:30:48.354Z,0
2018-03-14T03:31:28.859Z,0
2018-03-14T03:32:09.358Z,0
2018-03-14T03:32:49.851Z,0
2018-03-14T03:33:30.350Z,0
2018-03-14T03:34:10.852Z,0
2018-03-14T03:34:51.375Z,0
2018-03-14T03:35:31.859Z,0
2018-03-14T03:36:12.371Z,0
2018-03-14T03:36:52.885Z,0
2018-03-14T03:37:33.396Z,0
2018-03-14T03:38:13.902Z,0
2018-03-14T03:38:54.425Z,0
2018-03-14T03:39:34.934Z,0
2018-03-14T03:40:15.535Z,0
2018-03-14T03:40:56.040Z,0
2018-03-14T03:41:36.552Z,0
2018-03-14T03:42:17.070Z,0
2018-03-14T03:42:57.574Z,0
2018-03-14T03:43:38.082Z,0
2018-03-14T03:44:18.602Z,0
2018-03-14T03:44:59.104Z,0
2018-03-14T03:45:39.607Z,0
2018-03-14T03:46:20.104Z,0
2018-03-14T03:47:00.615Z,0
2018-03-14T03:47:41.118Z,0
2018-03-14T03:48:21.635Z,0
2018-03-14T03:49:02.151Z,0
2018-03-14T03:49:42.649Z,0
2018-03-14T03:50:23.150Z,0
2018-03-14T03:51:03.674Z,0
2018-03-14T03:51:44.183Z,0
2018-03-14T03:52:24.703Z,0
2018-03-14T03:53:05.211Z,0
2018-03-14T03:53:45.723Z,0
2018-03-14T03:54:26.227Z,0
2018-03-14T03:55:06.744Z,0
2018-03-14T03:55:47.237Z,0
2018-03-14T03:56:27.740Z,0
2018-03-14T03:57:08.271Z,0
2018-03-14T03:57:48.771Z,0
2018-03-14T03:58:29.269Z,0
2018-03-14T03:59:09.820Z,0
2018-03-14T03:59:50.318Z,0
2018-03-14T04:00:30.835Z,0
2018-03-14T04:01:11.369Z,0
2018-03-14T04:01:51.849Z,0
2018-03-14T04:02:32.374Z,0
2018-03-14T04:03:12.866Z,0
2018-03-14T04:03:53.390Z,0
2018-03-14T04:04:33.895Z,0
2018-03-14T04:05:14.412Z,0
2018-03-14T04:05:54.925Z,0
2018-03-14T04:06:35.416Z,0
2018-03-14T04:07:15.939Z,0
2018-03-14T04:07:56.442Z,0
2018-03-14T04:08:36.973Z,0
2018-03-14T04:09:17.477Z,0
2018-03-14T04:09:57.985Z,0
2018-03-14T04:10:38.493Z,0
2018-03-14T04:11:18.979Z,0
2018-03-14T04:11:59.489Z,0
2018-03-14T04:12:39.982Z,0
2018-03-14T04:13:20.509Z,0
2018-03-14T04:14:00.996Z,0
2018-03-14T04:14:41.511Z,0
2018-03-14T04:15:22.014Z,0
2018-03-14T04:16:02.508Z,0
2018-03-14T04:16:43.011Z,0
2018-03-14T04:17:23.522Z,0
2018-03-14T04:18:04.025Z,0
2018-03-14T04:18:44.527Z,0
2018-03-14T04:19:25.042Z,0
2018-03-14T04:20:05.555Z,0
2018-03-14T04:20:46.074Z,0
2018-03-14T04:21:26.580Z,0
2018-03-14T04:22:07.088Z,0
2018-03-14T04:22:47.586Z,0
2018-03-14T04:23:28.088Z,0
2018-03-14T04:24:08.608Z,0
2018-03-14T04:24:49.103Z,0
2018-03-14T04:25:29.616Z,0
2018-03-14T04:26:10.132Z,0
2018-03-14T04:26:50.644Z,0
2018-03-14T04:27:31.162Z,0
2018-03-14T04:28:11.671Z,0
2018-03-14T04:28:52.182Z,0
2018-03-14T04:29:32.682Z,0
2018-03-14T04:30:13.211Z,0
2018-03-14T04:30:53.698Z,0
2018-03-14T04:31:34.247Z,0
2018-03-14T04:32:14.712Z,0
2018-03-14T04:32:55.218Z,0
2018-03-14T04:33:35.731Z,0
2018-03-14T04:34:16.229Z,0
2018-03-14T04:34:56.738Z,0
2018-03-14T04:35:37.240Z,0
2018-03-14T04:36:17.756Z,0
2018-03-14T04:36:58.273Z,0
2018-03-14T04:37:38.783Z,0
2018-03-14T04:38:19.292Z,0
2018-03-14T04:38:59.804Z,0
2018-03-14T04:39:40.321Z,0
2018-03-14T04:40:20.836Z,0
2018-03-14T04:41:01.351Z,0
2018-03-14T04:41:41.866Z,0
2018-03-14T04:42:22.379Z,0
2018-03-14T04:43:02.884Z,0
2018-03-14T04:43:43.408Z,0
2018-03-14T04:44:23.942Z,0
2018-03-14T04:45:04.435Z,0
2018-03-14T04:45:44.945Z,0
2018-03-14T04:46:25.470Z,0
2018-03-14T04:47:05.980Z,0
2018-03-14T04:47:46.508Z,0
2018-03-14T04:48:27.026Z,0
2018-03-14T04:49:07.537Z,0
2018-03-14T04:49:48.056Z,0
2018-03-14T04:50:28.556Z,0
2018-03-14T04:51:09.093Z,0
2018-03-14T04:51:49.602Z,0
2018-03-14T04:52:30.112Z,0
2018-03-14T04:53:10.626Z,0
2018-03-14T04:53:51.137Z,0
2018-03-14T04:54:31.657Z,0
2018-03-14T04:55:12.172Z,0
2018-03-14T04:55:52.678Z,0
2018-03-14T04:56:33.186Z,0
2018-03-14T04:57:13.704Z,0
2018-03-14T04:57:54.208Z,0
2018-03-14T04:58:34.721Z,0
2018-03-14T04:59:15.233Z,0
2018-03-14T04:59:55.745Z,0
2018-03-14T05:00:36.262Z,0
2018-03-14T05:01:16.779Z,0
2018-03-14T05:01:57.299Z,0
2018-03-14T05:02:37.830Z,0
2018-03-14T05:03:18.353Z,0
2018-03-14T05:03:58.875Z,0
2018-03-14T05:04:39.380Z,0
2018-03-14T05:05:19.901Z,0
2018-03-14T05:06:00.410Z,0
2018-03-14T05:06:40.921Z,0
2018-03-14T05:07:21.439Z,0
2018-03-14T05:08:01.953Z,0
2018-03-14T05:08:42.466Z,0
2018-03-14T05:09:23.002Z,0
2018-03-14T05:10:03.510Z,0
2018-03-14T05:10:44.040Z,0
2018-03-14T05:11:24.554Z,0
2018-03-14T05:12:05.064Z,0
2018-03-14T05:12:45.578Z,0
2018-03-14T05:13:26.088Z,0
2018-03-14T05:14:06.609Z,0
2018-03-14T05:14:47.123Z,0
2018-03-14T05:15:27.626Z,0
2018-03-14T05:16:08.140Z,0
2018-03-14T05:16:48.663Z,0
2018-03-14T05:17:29.180Z,0
2018-03-14T05:18:09.686Z,0
2018-03-14T05:18:50.198Z,0
2018-03-14T05:19:30.716Z,0
2018-03-14T05:20:11.222Z,4
2018-03-14T05:20:51.731Z,4
2018-03-14T05:21:32.241Z,0
2018-03-14T05:22:12.755Z,0
2018-03-14T05:22:53.270Z,4
2018-03-14T05:23:33.782Z,4
2018-03-14T05:24:14.306Z,4
2018-03-14T05:24:54.821Z,4
2018-03-14T05:25:35.338Z,4
2018-03-14T05:26:15.851Z,4
2018-03-14T05:26:56.369Z,8
2018-03-14T05:27:36.884Z,4
2018-03-14T05:28:17.394Z,8
2018-03-14T05:28:57.917Z,8
2018-03-14T05:29:38.428Z,12
2018-03-14T05:30:18.948Z,8
2018-03-14T05:30:59.465Z,12
2018-03-14T05:31:39.980Z,12
2018-03-14T05:32:20.537Z,12
2018-03-14T05:33:01.054Z,16
2018-03-14T05:33:41.571Z,20
2018-03-14T05:34:22.086Z,20
2018-03-14T05:35:02.607Z,24
2018-03-14T05:35:43.126Z,24
2018-03-14T05:38:17.468Z,36
2018-03-14T05:38:57.993Z,40
2018-03-14T05:39:38.506Z,40
2018-03-14T05:40:19.014Z,48
2018-03-14T05:40:59.537Z,48
2018-03-14T05:41:40.053Z,52
2018-03-14T05:42:20.583Z,60
2018-03-14T05:43:01.100Z,60
2018-03-14T05:43:41.601Z,64
2018-03-14T05:44:22.121Z,64
2018-03-14T05:45:02.669Z,64
2018-03-14T05:45:43.147Z,68
2018-03-14T05:46:23.668Z,68
2018-03-14T05:47:04.194Z,72
2018-03-14T05:47:44.746Z,72
2018-03-14T05:48:25.255Z,72
2018-03-14T05:49:05.752Z,80
2018-03-14T05:49:46.277Z,80
2018-03-14T05:50:26.789Z,84
2018-03-14T05:51:07.302Z,92
2018-03-14T05:51:47.815Z,92
2018-03-14T05:52:28.347Z,96
2018-03-14T05:53:08.833Z,104
2018-03-14T05:53:49.350Z,108
2018-03-14T05:54:29.870Z,108
2018-03-14T05:55:10.392Z,112
2018-03-14T05:55:50.922Z,116
2018-03-14T05:56:31.428Z,120
2018-03-14T05:57:11.925Z,124
2018-03-14T05:57:52.445Z,128
2018-03-14T05:58:32.977Z,136
2018-03-14T05:59:13.503Z,140
2018-03-14T05:59:54.022Z,148
2018-03-14T06:00:34.523Z,160
2018-03-14T06:01:15.039Z,168
2018-03-14T06:01:55.548Z,176
2018-03-14T06:02:36.416Z,184
2018-03-14T06:03:16.591Z,188
2018-03-14T06:03:57.327Z,192
2018-03-14T06:04:37.917Z,196
2018-03-14T06:05:18.486Z,208
2018-03-14T06:05:58.936Z,224
2018-03-14T06:06:39.447Z,240
2018-03-14T06:07:19.959Z,260
2018-03-14T06:08:00.482Z,276
2018-03-14T06:08:41.007Z,292
2018-03-14T06:09:21.522Z,312
2018-03-14T06:10:02.031Z,328
2018-03-14T06:10:42.532Z,352
2018-03-14T06:11:23.045Z,376
2018-03-14T06:12:03.545Z,400
2018-03-14T06:12:44.050Z,420
2018-03-14T06:13:24.556Z,436
2018-03-14T06:14:05.063Z,456
2018-03-14T06:14:45.565Z,468
2018-03-14T06:15:26.234Z,480
2018-03-14T06:16:06.694Z,496
2018-03-14T06:16:47.198Z,516
2018-03-14T06:17:27.710Z,536
2018-03-14T06:18:08.212Z,552
2018-03-14T06:18:48.723Z,552
2018-03-14T06:19:29.274Z,548
2018-03-14T06:20:09.751Z,536
2018-03-14T06:20:50.235Z,532
2018-03-14T06:21:30.730Z,536
2018-03-14T06:22:11.252Z,556
2018-03-14T06:22:51.771Z,560
2018-03-14T06:23:32.291Z,568
2018-03-14T06:24:12.806Z,576
2018-03-14T06:24:53.323Z,580
2018-03-14T06:25:33.856Z,588
2018-03-14T06:26:14.374Z,596
2018-03-14T06:26:54.872Z,612
2018-03-14T06:27:35.383Z,624
2018-03-14T06:28:15.913Z,636
2018-03-14T06:28:56.424Z,656
2018-03-14T06:29:36.953Z,672
2018-03-14T06:30:17.465Z,692
2018-03-14T06:30:58.013Z,700
2018-03-14T06:31:38.510Z,704
2018-03-14T06:32:19.041Z,696
2018-03-14T06:32:59.573Z,688
2018-03-14T06:33:40.037Z,692
2018-03-14T06:34:20.517Z,692
2018-03-14T06:35:01.028Z,692
2018-03-14T06:35:41.545Z,700
2018-03-14T06:36:22.034Z,704
2018-03-14T06:37:02.543Z,708
2018-03-14T06:37:43.057Z,704
2018-03-14T06:38:23.580Z,704
2018-03-14T06:39:04.110Z,704
2018-03-14T06:39:44.617Z,704
2018-03-14T06:40:25.127Z,708
2018-03-14T06:41:05.626Z,708
2018-03-14T06:41:46.125Z,712
2018-03-14T06:42:26.640Z,716
2018-03-14T06:43:07.128Z,720
2018-03-14T06:43:47.634Z,732
2018-03-14T06:44:28.147Z,736
2018-03-14T06:45:08.683Z,752
2018-03-14T06:45:49.185Z,772
2018-03-14T06:46:29.688Z,800
2018-03-14T06:47:10.187Z,828
2018-03-14T06:47:50.692Z,860
2018-03-14T06:48:31.219Z,884
2018-03-14T06:49:11.721Z,900
2018-03-14T06:49:52.231Z,928
2018-03-14T06:50:32.753Z,952
2018-03-14T06:51:13.240Z,976
2018-03-14T06:51:53.750Z,1000
2018-03-14T06:52:34.250Z,1008
2018-03-14T06:53:14.760Z,1032
2018-03-14T06:53:55.280Z,1056
2018-03-14T06:54:35.793Z,1096
2018-03-14T06:55:16.312Z,1140
2018-03-14T06:55:56.796Z,1168
2018-03-14T06:56:37.277Z,1180
2018-03-14T06:57:17.766Z,1172
2018-03-14T06:57:58.281Z,1168
2018-03-14T06:58:38.781Z,1184
2018-03-14T06:59:19.272Z,1204
2018-03-14T06:59:59.789Z,1240
2018-03-14T07:00:40.279Z,1268
2018-03-14T07:01:20.788Z,1288
2018-03-14T07:02:01.324Z,1296
2018-03-14T07:02:41.739Z,1300
2018-03-14T07:03:22.230Z,1288
2018-03-14T07:04:02.739Z,1284
2018-03-14T07:04:43.242Z,1268
2018-03-14T07:05:23.760Z,1252
2018-03-14T07:06:04.258Z,1232
2018-03-14T07:06:44.753Z,1220
2018-03-14T07:07:25.246Z,1224
2018-03-14T07:08:05.746Z,1228
2018-03-14T07:08:46.258Z,1228
2018-03-14T07:09:26.786Z,1220
2018-03-14T07:10:07.283Z,1200
2018-03-14T07:10:47.782Z,1176
2018-03-14T07:11:28.286Z,1168
2018-03-14T07:12:08.789Z,1156
2018-03-14T07:12:49.291Z,1164
2018-03-14T07:13:29.804Z,1164
2018-03-14T07:14:10.336Z,1168
2018-03-14T07:14:50.854Z,1176
2018-03-14T07:15:31.358Z,1188
2018-03-14T07:16:11.884Z,1204
2018-03-14T07:16:52.399Z,1224
2018-03-14T07:17:32.954Z,1252
2018-03-14T07:18:13.448Z,1284
2018-03-14T07:18:53.958Z,1300
2018-03-14T07:19:34.441Z,1324
2018-03-14T07:20:14.949Z,1344
2018-03-14T07:20:55.417Z,1348
2018-03-14T07:21:35.937Z,1348
2018-03-14T07:22:16.411Z,1344
2018-03-14T07:22:57.005Z,1340
2018-03-14T07:23:37.496Z,1340
2018-03-14T07:24:18.018Z,1352
2018-03-14T07:24:58.509Z,1376
2018-03-14T07:25:39.018Z,1404
2018-03-14T07:26:19.576Z,1424
2018-03-14T07:27:00.050Z,1436
2018-03-14T07:27:40.601Z,1448
2018-03-14T07:28:21.067Z,1456
2018-03-14T07:29:01.603Z,1472
2018-03-14T07:29:42.111Z,1496
2018-03-14T07:30:22.630Z,1516
2018-03-14T07:31:03.124Z,1540
2018-03-14T07:31:43.653Z,1560
2018-03-14T07:32:24.112Z,1592
2018-03-14T07:33:04.594Z,1624
2018-03-14T07:33:45.109Z,1644
2018-03-14T07:34:25.620Z,1660
2018-03-14T07:35:06.145Z,1672
2018-03-14T07:35:46.653Z,1660
2018-03-14T07:36:27.160Z,1652
2018-03-14T07:37:07.625Z,1660
2018-03-14T07:37:48.182Z,1680
2018-03-14T07:38:28.697Z,1700
2018-03-14T07:39:09.144Z,1724
2018-03-14T07:39:49.631Z,1764
2018-03-14T07:40:30.137Z,1804
2018-03-14T07:41:10.630Z,1836
2018-03-14T07:41:51.206Z,1868
2018-03-14T07:42:31.706Z,1900
2018-03-14T07:43:12.186Z,1932
2018-03-14T07:43:52.697Z,1956
2018-03-14T07:44:33.204Z,1980
2018-03-14T07:45:13.676Z,2008
2018-03-14T07:45:54.201Z,2024
2018-03-14T07:46:34.705Z,2040
2018-03-14T07:47:15.466Z,2048
2018-03-14T07:47:56.004Z,2056
2018-03-14T07:48:36.523Z,2060
2018-03-14T07:49:16.992Z,2072
2018-03-14T07:49:57.481Z,2084
2018-03-14T07:50:37.992Z,2096
2018-03-14T07:51:18.500Z,2108
2018-03-14T07:51:59.020Z,2116
2018-03-14T07:52:39.590Z,2124
2018-03-14T07:53:20.031Z,2132
2018-03-14T07:54:00.538Z,2148
2018-03-14T07:54:41.075Z,2176
2018-03-14T07:55:21.555Z,2192
2018-03-14T07:56:02.375Z,2212
2018-03-14T07:56:42.881Z,2248
2018-03-14T07:57:23.409Z,2284
2018-03-14T07:58:03.914Z,2316
2018-03-14T07:58:44.434Z,2340
2018-03-14T07:59:24.934Z,2368
2018-03-14T08:00:05.416Z,2400
2018-03-14T08:00:45.921Z,2444
2018-03-14T08:01:26.437Z,2488
2018-03-14T08:02:06.936Z,2544
2018-03-14T08:02:47.490Z,2612
2018-03-14T08:03:27.971Z,2660
2018-03-14T08:04:08.486Z,2788
2018-03-14T08:04:49.000Z,2924
2018-03-14T08:05:29.484Z,3056
2018-03-14T08:06:09.984Z,3188
2018-03-14T08:06:50.472Z,3300
2018-03-14T08:07:31.006Z,3408
2018-03-14T08:08:11.422Z,3540
2018-03-14T08:08:51.911Z,3584
2018-03-14T08:09:32.438Z,3584
2018-03-14T08:10:12.957Z,3576
2018-03-14T08:10:53.445Z,3604
2018-03-14T08:11:33.955Z,3692
2018-03-14T08:12:14.465Z,3824
2018-03-14T08:12:54.984Z,3988
2018-03-14T08:13:35.648Z,4120
2018-03-14T08:14:15.998Z,4276
2018-03-14T08:14:56.504Z,4444
2018-03-14T08:15:37.085Z,4556
2018-03-14T08:16:17.503Z,4692
2018-03-14T08:16:58.051Z,4776
2018-03-14T08:17:38.559Z,4772
2018-03-14T08:18:19.034Z,4748
2018-03-14T08:18:59.561Z,4700
2018-03-14T08:19:40.087Z,4668
2018-03-14T08:20:20.628Z,4588
2018-03-14T08:21:01.220Z,4560
2018-03-14T08:21:41.634Z,4564
2018-03-14T08:22:22.141Z,4572
2018-03-14T08:23:02.673Z,4540
2018-03-14T08:23:43.172Z,4508
2018-03-14T08:24:23.628Z,4456
2018-03-14T08:25:04.131Z,4384
2018-03-14T08:25:44.661Z,4428
2018-03-14T08:26:25.161Z,4508
2018-03-14T08:27:05.677Z,4376
2018-03-14T08:27:46.228Z,4460
2018-03-14T08:28:26.668Z,4636
2018-03-14T08:29:07.171Z,4872
2018-03-14T08:29:47.691Z,5020
2018-03-14T08:30:28.199Z,5148
2018-03-14T08:31:08.690Z,5160
2018-03-14T08:31:49.191Z,5188
2018-03-14T08:32:29.700Z,5176
2018-03-14T08:33:10.184Z,5104
2018-03-14T08:33:50.715Z,5076
2018-03-14T08:34:31.222Z,5044
2018-03-14T08:35:11.721Z,5076
2018-03-14T08:35:52.233Z,5072
2018-03-14T08:36:32.737Z,5128
2018-03-14T08:37:13.265Z,4972
2018-03-14T08:37:53.768Z,4924
2018-03-14T08:38:34.276Z,4888
2018-03-14T08:39:14.785Z,4808
2018-03-14T08:39:55.289Z,4764
2018-03-14T08:40:35.784Z,4596
2018-03-14T08:41:16.287Z,4496
2018-03-14T08:41:56.804Z,4428
2018-03-14T08:42:37.289Z,4320
2018-03-14T08:43:17.792Z,4184
2018-03-14T08:43:58.278Z,4096
2018-03-14T08:44:38.822Z,4056
2018-03-14T08:45:19.345Z,4068
2018-03-14T08:45:59.812Z,4060
2018-03-14T08:46:40.309Z,3976
2018-03-14T08:47:20.826Z,3900
2018-03-14T08:48:01.326Z,3780
2018-03-14T08:48:41.843Z,3660
2018-03-14T08:49:22.349Z,3572
2018-03-14T08:50:02.830Z,3572
2018-03-14T08:50:43.312Z,3564
2018-03-14T08:51:23.824Z,3500
2018-03-14T08:52:04.322Z,3524
2018-03-14T08:52:44.861Z,3500
2018-03-14T08:53:25.358Z,3388
2018-03-14T08:54:05.856Z,3288
2018-03-14T08:54:46.381Z,3196
2018-03-14T08:55:26.888Z,3276
2018-03-14T08:56:07.402Z,3220
2018-03-14T08:56:47.934Z,3128
2018-03-14T08:57:28.443Z,3076
2018-03-14T08:58:08.969Z,2932
2018-03-14T08:58:49.488Z,2744
2018-03-14T09:01:02.785Z,2260
2018-03-14T09:01:43.305Z,2228
2018-03-14T09:02:23.811Z,2212
2018-03-14T09:03:04.316Z,2208
2018-03-14T09:03:44.835Z,2204
2018-03-14T09:04:25.358Z,2208
2018-03-14T09:05:05.886Z,2204
2018-03-14T09:05:46.387Z,2208
2018-03-14T09:06:26.915Z,2200
2018-03-14T09:07:07.441Z,2196
2018-03-14T09:07:47.947Z,2196
2018-03-14T09:08:28.460Z,2192
2018-03-14T09:09:08.985Z,2188
2018-03-14T09:09:49.505Z,2188
2018-03-14T09:10:30.033Z,2188
2018-03-14T09:11:10.618Z,2180
2018-03-14T09:11:51.069Z,2176
2018-03-14T09:12:31.568Z,2172
2018-03-14T09:13:12.090Z,2168
2018-03-14T09:13:52.571Z,2160
2018-03-14T09:14:33.113Z,2152
2018-03-14T09:15:13.631Z,2152
2018-03-14T09:15:54.134Z,2152
2018-03-14T09:16:34.644Z,2152
2018-03-14T09:17:15.156Z,2148
2018-03-14T09:17:55.659Z,2152
2018-03-14T09:18:36.181Z,2160
2018-03-14T09:19:16.722Z,2160
2018-03-14T09:19:57.197Z,2168
2018-03-14T09:20:37.704Z,2172
2018-03-14T09:21:18.219Z,2176
2018-03-14T09:21:58.728Z,2180
2018-03-14T09:22:39.242Z,2188
2018-03-14T09:23:19.739Z,2188
2018-03-14T09:24:00.240Z,2192
2018-03-14T09:24:40.722Z,2196
2018-03-14T09:25:21.216Z,2200
2018-03-14T09:26:01.749Z,2208
2018-03-14T09:26:42.269Z,2220
2018-03-14T09:27:22.794Z,2228
2018-03-14T09:28:03.312Z,2236
2018-03-14T09:28:43.793Z,2256
2018-03-14T09:29:25.048Z,2276
2018-03-14T09:30:05.563Z,2304
2018-03-14T09:30:46.070Z,2316
2018-03-14T09:31:26.572Z,2332
2018-03-14T09:32:07.084Z,2344
2018-03-14T09:32:47.564Z,2376
2018-03-14T09:33:28.066Z,2416
2018-03-14T09:34:08.553Z,2444
2018-03-14T09:34:49.078Z,2472
2018-03-14T09:35:29.559Z,2508
2018-03-14T09:36:10.084Z,2528
2018-03-14T09:36:50.553Z,2504
2018-03-14T09:37:31.080Z,2488
2018-03-14T09:38:11.547Z,2472
2018-03-14T09:38:52.073Z,2464